Florennes, Belgium

5:56 AM CEST on September 01, 2015 (GMT +0200)
DPP Observatory | | Change Station
CLOSE
Current Station
Personal Weather Station
Location: Lesve, NAMUR
Elevation: 741 ft
Nearby Weather Stations

Elev 741 ft 50.36 °N, 4.78 °E | Updated 10 minutes ago

Mostly Cloudy
Mostly Cloudy
62.4 °F
Feels Like 62.4 °F
N
0.0
Wind Variable Wind from North
Gusts 0.0 mph

Today
High -- | Low -- °F
--% Chance of Precip.
Yesterday
High -- | Low -- °F
Precip. -- in
6:55 AM 8:26 PM
Waning Gibbous, 92% visible
Pressure 29.89 in
Visibility 6.2 miles
Clouds Scattered Clouds 700 ft
Mostly Cloudy 2000 ft
Dew Point 58 °F
Humidity 87%
Rainfall Not available.
Snow Depth Not available.
UV 0 out of 12
Pollen Not available.
Air Quality Not available.
Flu Activity Not available.
METAR EBCI 010350Z 35005KT 310V020 9999 SCT007 BKN020 16/14 Q1012 NOSIG
Pressure 29.89 in
Visibility 6.2 miles
Clouds Scattered Clouds 700 ft
Mostly Cloudy 2000 ft
Dew Point 58 °F
Humidity 87%
Rainfall Not available.
Snow Depth Not available.
UV 0 out of 12
Pollen Not available.
Air Quality Not available.
Flu Activity Not available.
METAR EBCI 010350Z 35005KT 310V020 9999 SCT007 BKN020 16/14 Q1012 NOSIG

10-Day Weather Forecast

×

Almanac

Astronomy

Sep. 01, 2015 Rise Set
Actual Time
Civil Twilight
Nautical Twilight
Astronomical Twilight
Moon
Length of Visible Light
Length of Day
Tomorrow will be .
, % of the Moon is Illuminated

Today's Extremes

Country Highs Country Lows

Community

WunderPhotos

Upload Photos

1,851,475 photos uploaded!

WunderBlogs® & News

Nearby

Air Quality

  Air Quality AQ Index Pollutant
Not available.

Snow Depth

Station Depth Elevation

Earthquake Activity

City Distance Mag. Time & Date
Minimum magnitude displayed is 2.5.

Coastal Water Temperatures

Place Temperature

Stations

Nearby Weather Stations

Station Location Temp. Windchill Dew Point Humidity Wind Precip. Elev Updated Type